createdAt,value
2023-01-22T00:00:05.398Z,99.05
2023-01-22T00:02:32.580Z,99.09
2023-01-22T00:04:59.235Z,98.93
2023-01-22T00:07:25.785Z,98.10
2023-01-22T00:09:52.783Z,98.57
2023-01-22T00:12:19.331Z,98.88
2023-01-22T00:14:46.407Z,99.17
2023-01-22T00:17:14.201Z,99.19
2023-01-22T00:19:40.788Z,98.97
2023-01-22T00:22:07.373Z,99.14
2023-01-22T00:24:33.910Z,99.63
2023-01-22T00:27:00.437Z,99.31
2023-01-22T00:29:26.957Z,99.49
2023-01-22T00:31:54.601Z,99.43
2023-01-22T00:34:21.224Z,98.91
2023-01-22T00:36:47.765Z,99.04
2023-01-22T00:39:14.358Z,98.54
2023-01-22T00:41:42.040Z,98.72
2023-01-22T00:44:08.687Z,98.67
2023-01-22T00:46:35.612Z,98.55
2023-01-22T00:49:03.629Z,98.55
2023-01-22T00:51:30.464Z,98.85
2023-01-22T00:53:57.022Z,98.66
2023-01-22T00:56:23.624Z,98.68
2023-01-22T00:58:50.191Z,97.69
2023-01-22T01:01:17.554Z,97.65
2023-01-22T01:03:44.343Z,97.78
2023-01-22T01:06:19.992Z,97.61
2023-01-22T01:08:47.738Z,97.68
2023-01-22T01:11:23.383Z,96.90
2023-01-22T01:13:51.384Z,97.20
2023-01-22T01:16:24.046Z,97.23
2023-01-22T01:18:50.847Z,97.12
2023-01-22T01:21:19.179Z,96.37
2023-01-22T01:23:46.374Z,96.19
2023-01-22T01:26:15.237Z,96.56
2023-01-22T01:28:42.817Z,96.55
2023-01-22T01:31:13.089Z,96.51
2023-01-22T01:33:40.734Z,96.55
2023-01-22T01:36:21.238Z,96.66
2023-01-22T01:38:57.436Z,96.55
2023-01-22T01:41:26.448Z,96.51
2023-01-22T01:44:16.340Z,96.44
2023-01-22T01:46:55.795Z,96.28
2023-01-22T01:49:43.679Z,96.40
2023-01-22T01:52:12.461Z,96.24
2023-01-22T01:54:43.013Z,96.39
2023-01-22T01:57:16.599Z,96.36
2023-01-22T01:59:43.307Z,96.42
2023-01-22T02:02:10.524Z,96.46
2023-01-22T02:04:37.254Z,96.20
2023-01-22T02:07:05.523Z,96.35
2023-01-22T02:09:32.497Z,96.27
2023-01-22T02:11:59.163Z,96.34
2023-01-22T02:14:29.624Z,96.30
2023-01-22T02:17:08.105Z,95.79
2023-01-22T02:19:34.716Z,95.67
2023-01-22T02:22:01.326Z,95.71
2023-01-22T02:24:30.826Z,95.54
2023-01-22T02:26:57.396Z,95.65
2023-01-22T02:29:26.577Z,95.74
2023-01-22T02:31:53.360Z,95.78
2023-01-22T02:34:20.028Z,95.76
2023-01-22T02:36:46.603Z,95.98
2023-01-22T02:39:13.209Z,95.70
2023-01-22T02:41:39.759Z,95.43
2023-01-22T02:44:07.553Z,95.43
2023-01-22T02:46:34.250Z,95.46
2023-01-22T02:49:00.839Z,95.50
2023-01-22T02:51:27.588Z,95.17
2023-01-22T02:53:54.652Z,94.65
2023-01-22T02:56:21.482Z,94.75
2023-01-22T02:58:48.299Z,95.00
2023-01-22T03:01:21.487Z,95.25
2023-01-22T03:03:49.787Z,95.17
2023-01-22T03:06:21.528Z,95.18
2023-01-22T03:08:49.720Z,95.35
2023-01-22T03:11:16.290Z,95.30
2023-01-22T03:14:01.524Z,95.37
2023-01-22T03:16:46.563Z,95.34
2023-01-22T03:19:31.968Z,95.42
2023-01-22T03:21:58.622Z,95.54
2023-01-22T03:24:25.218Z,95.66
2023-01-22T03:26:51.788Z,95.72
2023-01-22T03:29:18.391Z,95.78
2023-01-22T03:31:48.389Z,95.85
2023-01-22T03:34:16.269Z,95.44
2023-01-22T03:36:43.051Z,95.47
2023-01-22T03:39:10.285Z,95.51
2023-01-22T03:41:37.315Z,95.58
2023-01-22T03:44:04.455Z,95.65
2023-01-22T03:46:31.949Z,95.71
2023-01-22T03:48:58.598Z,95.89
2023-01-22T03:51:25.435Z,95.97
2023-01-22T03:53:52.061Z,96.00
2023-01-22T03:56:23.666Z,95.96
2023-01-22T03:58:50.672Z,95.94
2023-01-22T04:01:20.423Z,95.84
2023-01-22T04:03:47.983Z,95.82
2023-01-22T04:06:14.980Z,95.73
2023-01-22T04:08:43.561Z,95.59
2023-01-22T04:11:10.950Z,95.59
2023-01-22T04:13:39.420Z,95.52
2023-01-22T04:16:06.970Z,95.46
2023-01-22T04:18:33.636Z,95.48
2023-01-22T04:21:00.261Z,95.37
2023-01-22T04:23:26.867Z,95.35
2023-01-22T04:25:53.721Z,95.30
2023-01-22T04:28:21.475Z,95.12
2023-01-22T04:30:50.938Z,95.06
2023-01-22T04:33:17.625Z,94.84
2023-01-22T04:35:44.160Z,94.88
2023-01-22T04:38:13.659Z,94.84
2023-01-22T04:40:40.598Z,94.99
2023-01-22T04:43:09.982Z,95.10
2023-01-22T04:45:36.806Z,94.79
2023-01-22T04:48:03.507Z,94.60
2023-01-22T04:50:32.439Z,94.57
2023-01-22T04:53:00.338Z,94.40
2023-01-22T04:55:28.687Z,94.27
2023-01-22T04:57:57.157Z,93.98
2023-01-22T05:00:24.677Z,93.96
2023-01-22T05:02:55.535Z,93.85
2023-01-22T05:05:22.092Z,94.00
2023-01-22T05:07:48.631Z,93.91
2023-01-22T05:10:15.686Z,93.89
2023-01-22T05:12:42.335Z,94.02
2023-01-22T05:15:23.101Z,94.14
2023-01-22T05:17:51.059Z,94.20
2023-01-22T05:20:18.279Z,94.20
2023-01-22T05:22:45.230Z,94.03
2023-01-22T05:25:12.221Z,94.11
2023-01-22T05:27:38.816Z,94.11
2023-01-22T05:30:06.770Z,94.08
2023-01-22T05:32:33.383Z,94.15
2023-01-22T05:34:59.926Z,94.14
2023-01-22T05:37:26.511Z,93.98
2023-01-22T05:39:53.090Z,94.28
2023-01-22T05:42:20.956Z,94.02
2023-01-22T05:44:47.725Z,94.03
2023-01-22T05:47:14.824Z,94.07
2023-01-22T05:49:41.451Z,94.26
2023-01-22T05:52:10.955Z,94.03
2023-01-22T05:54:40.771Z,94.18
2023-01-22T05:57:08.130Z,94.15
2023-01-22T05:59:35.119Z,94.11
2023-01-22T06:02:01.935Z,94.25
2023-01-22T06:04:29.094Z,94.34
2023-01-22T06:06:55.709Z,94.38
2023-01-22T06:09:22.677Z,94.20
2023-01-22T06:11:49.321Z,94.17
2023-01-22T06:14:16.160Z,94.02
2023-01-22T06:16:42.860Z,94.33
2023-01-22T06:19:09.770Z,94.08
2023-01-22T06:21:36.342Z,93.95
2023-01-22T06:24:02.908Z,94.04
2023-01-22T06:26:29.503Z,94.12
2023-01-22T06:28:56.045Z,94.05
2023-01-22T06:31:22.793Z,93.86
2023-01-22T06:33:50.548Z,93.99
2023-01-22T06:36:17.076Z,93.82
2023-01-22T06:38:43.825Z,94.06
2023-01-22T06:41:10.472Z,93.65
2023-01-22T06:43:39.995Z,93.47
2023-01-22T06:46:06.751Z,93.53
2023-01-22T06:48:33.363Z,93.54
2023-01-22T06:51:00.450Z,93.54
2023-01-22T06:53:27.838Z,93.58
2023-01-22T06:55:54.630Z,93.54
2023-01-22T06:58:21.371Z,93.34
2023-01-22T07:00:47.942Z,93.60
2023-01-22T07:03:14.531Z,93.68
2023-01-22T07:05:41.142Z,93.78
2023-01-22T07:08:08.082Z,93.74
2023-01-22T07:10:34.644Z,93.42
2023-01-22T07:13:01.631Z,93.04
2023-01-22T07:15:28.216Z,93.42
2023-01-22T07:17:55.136Z,93.55
2023-01-22T07:20:23.373Z,93.60
2023-01-22T07:22:51.428Z,93.49
2023-01-22T07:25:19.311Z,93.29
2023-01-22T07:27:45.965Z,93.47
2023-01-22T07:30:12.872Z,93.30
2023-01-22T07:32:39.694Z,93.36
2023-01-22T07:35:06.500Z,93.33
2023-01-22T07:37:33.072Z,93.09
2023-01-22T07:39:59.598Z,92.61
2023-01-22T07:42:26.118Z,92.64
2023-01-22T07:44:52.713Z,92.77
2023-01-22T07:47:19.280Z,92.86
2023-01-22T07:49:45.865Z,92.82
2023-01-22T07:52:12.529Z,92.80
2023-01-22T07:54:39.333Z,92.78
2023-01-22T07:57:05.886Z,92.28
2023-01-22T07:59:32.540Z,91.97
2023-01-22T08:02:02.344Z,92.09
2023-01-22T08:04:31.479Z,92.18
2023-01-22T08:07:02.583Z,92.16
2023-01-22T08:09:30.474Z,92.30
2023-01-22T08:11:57.391Z,92.38
2023-01-22T08:14:24.381Z,92.34
2023-01-22T08:16:51.467Z,92.21
2023-01-22T08:19:18.501Z,92.30
2023-01-22T08:21:45.155Z,92.31
2023-01-22T08:24:12.646Z,92.22
2023-01-22T08:26:40.132Z,92.26
2023-01-22T08:29:07.816Z,92.37
2023-01-22T08:31:35.319Z,92.31
2023-01-22T08:34:03.102Z,92.44
2023-01-22T08:36:29.973Z,92.75
2023-01-22T08:38:56.774Z,92.71
2023-01-22T08:41:23.549Z,92.76
2023-01-22T08:43:53.018Z,92.26
2023-01-22T08:46:19.990Z,92.33
2023-01-22T08:48:48.974Z,92.46
2023-01-22T08:51:15.683Z,92.18
2023-01-22T08:53:42.262Z,92.31
2023-01-22T08:56:09.037Z,92.01
2023-01-22T08:58:35.595Z,91.83
2023-01-22T09:01:02.503Z,92.03
2023-01-22T09:03:29.277Z,91.89
2023-01-22T09:05:58.686Z,91.78
2023-01-22T09:08:25.349Z,91.95
2023-01-22T09:10:51.998Z,92.07
2023-01-22T09:13:19.892Z,91.99
2023-01-22T09:15:46.673Z,91.95
2023-01-22T09:18:17.536Z,92.20
2023-01-22T09:20:45.446Z,92.17
2023-01-22T09:23:13.180Z,92.02
2023-01-22T09:25:41.536Z,91.29
2023-01-22T09:28:09.269Z,90.94
2023-01-22T09:30:39.336Z,91.21
2023-01-22T09:33:06.017Z,91.38
2023-01-22T09:35:32.607Z,91.17
2023-01-22T09:37:59.103Z,91.40
2023-01-22T09:40:29.701Z,91.18
2023-01-22T09:43:06.539Z,91.29
2023-01-22T09:45:37.940Z,91.22
2023-01-22T09:48:12.441Z,91.36
2023-01-22T09:50:40.179Z,91.59
2023-01-22T09:53:12.796Z,91.19
2023-01-22T09:55:44.646Z,90.86
2023-01-22T09:58:16.989Z,91.12
2023-01-22T10:00:55.496Z,91.39
2023-01-22T10:03:35.642Z,91.49
2023-01-22T10:06:10.362Z,90.85
2023-01-22T10:08:59.909Z,91.03
2023-01-22T10:11:26.401Z,90.76
2023-01-22T10:13:57.838Z,90.73
2023-01-22T10:16:25.200Z,90.91
2023-01-22T10:19:02.837Z,90.61
2023-01-22T10:21:32.503Z,90.63
2023-01-22T10:23:59.920Z,90.63
2023-01-22T10:26:37.221Z,90.77
2023-01-22T10:29:09.610Z,90.57
2023-01-22T10:31:41.091Z,89.86
2023-01-22T10:34:17.124Z,90.21
2023-01-22T10:36:50.081Z,88.84
2023-01-22T10:39:19.748Z,88.87
2023-01-22T10:41:47.807Z,88.63
2023-01-22T10:44:21.201Z,89.06
2023-01-22T10:46:49.680Z,89.33
2023-01-22T10:49:22.351Z,89.64
2023-01-22T10:51:57.119Z,89.07
2023-01-22T10:54:26.279Z,89.64
2023-01-22T10:57:03.140Z,89.74
2023-01-22T10:59:30.850Z,88.96
2023-01-22T11:02:00.385Z,88.08
2023-01-22T11:04:33.007Z,88.32
2023-01-22T11:07:20.626Z,89.69
2023-01-22T11:10:10.389Z,90.07
2023-01-22T11:12:41.185Z,90.07
2023-01-22T11:15:24.137Z,89.28
2023-01-22T11:17:54.181Z,89.77
2023-01-22T11:20:26.043Z,89.76
2023-01-22T11:23:10.800Z,88.41
2023-01-22T11:26:13.515Z,89.52
2023-01-22T11:29:01.382Z,89.88
2023-01-22T11:31:39.574Z,89.85
2023-01-22T11:34:21.445Z,89.33
2023-01-22T11:36:58.405Z,89.41
2023-01-22T11:39:59.368Z,89.59
2023-01-22T11:42:47.003Z,89.39
2023-01-22T11:45:47.490Z,88.82
2023-01-22T11:48:26.449Z,89.00
2023-01-22T11:51:06.550Z,88.63
2023-01-22T11:53:57.261Z,88.09
2023-01-22T11:56:33.654Z,87.99
2023-01-22T11:59:08.921Z,87.79
2023-01-22T12:01:53.740Z,88.73
2023-01-22T12:04:39.040Z,88.17
2023-01-22T12:07:24.299Z,87.46
2023-01-22T12:10:21.348Z,88.67
2023-01-22T12:13:04.696Z,89.32
2023-01-22T12:15:48.350Z,88.22
2023-01-22T12:18:33.378Z,88.04
2023-01-22T12:21:00.418Z,88.29
2023-01-22T12:24:20.622Z,87.91
2023-01-22T12:27:22.967Z,88.66
2023-01-22T12:29:59.325Z,88.67
2023-01-22T12:32:27.776Z,87.92
2023-01-22T12:35:12.464Z,88.63
2023-01-22T12:37:43.982Z,88.91
2023-01-22T12:40:26.576Z,89.09
2023-01-22T12:43:04.470Z,89.31
2023-01-22T12:45:55.426Z,88.67
2023-01-22T12:48:50.961Z,89.36
2023-01-22T12:51:38.247Z,88.43
2023-01-22T12:54:27.542Z,87.96
2023-01-22T12:57:12.912Z,87.98
2023-01-22T12:59:39.425Z,89.09
2023-01-22T13:02:38.898Z,89.75
2023-01-22T13:05:13.022Z,89.03
2023-01-22T13:07:43.446Z,88.58
2023-01-22T13:10:34.939Z,89.34
2023-01-22T13:13:04.952Z,89.31
2023-01-22T13:15:38.488Z,89.53
2023-01-22T13:18:16.721Z,89.19
2023-01-22T13:20:55.113Z,88.74
2023-01-22T13:23:22.323Z,89.25
2023-01-22T13:25:56.474Z,89.39
2023-01-22T13:28:24.802Z,89.59
2023-01-22T16:28:54.922Z,92.43
2023-01-22T16:31:26.236Z,92.46
2023-01-22T16:33:58.228Z,92.29
2023-01-22T16:36:29.383Z,92.16
2023-01-22T16:38:56.169Z,91.73
2023-01-22T16:41:34.319Z,91.54
2023-01-22T16:44:12.077Z,91.48
2023-01-22T16:46:41.189Z,92.04
2023-01-22T16:49:16.241Z,92.30
2023-01-22T16:51:45.862Z,91.51
2023-01-22T16:54:22.347Z,91.02
2023-01-22T16:56:49.150Z,91.12
2023-01-22T16:59:16.990Z,91.76
2023-01-22T17:01:44.104Z,91.43
2023-01-22T17:04:10.838Z,91.11
2023-01-22T17:06:43.581Z,91.02
2023-01-22T17:09:30.165Z,91.05
2023-01-22T17:12:00.254Z,90.94
2023-01-22T17:14:29.676Z,90.76
2023-01-22T17:16:57.830Z,90.96
2023-01-22T17:19:24.650Z,91.44
2023-01-22T17:21:55.155Z,90.64
2023-01-22T17:24:22.448Z,91.27
2023-01-22T17:26:50.451Z,91.37
2023-01-22T17:29:17.141Z,90.26
2023-01-22T17:31:44.008Z,91.19
2023-01-22T17:34:11.686Z,90.99
2023-01-22T17:36:39.743Z,90.59
2023-01-22T17:39:06.764Z,91.11
2023-01-22T17:41:33.628Z,91.78
2023-01-22T17:44:00.571Z,92.00
2023-01-22T17:46:32.153Z,90.90
2023-01-22T17:49:01.121Z,91.24
2023-01-22T17:51:29.101Z,91.41
2023-01-22T17:53:57.463Z,91.21
2023-01-22T17:56:26.779Z,91.13
2023-01-22T17:58:55.762Z,91.83
2023-01-22T18:01:24.682Z,91.05
2023-01-22T18:03:51.681Z,91.62
2023-01-22T18:06:19.217Z,91.95
2023-01-22T18:08:45.792Z,91.63
2023-01-22T18:11:18.306Z,91.04
2023-01-22T18:13:45.426Z,91.59
2023-01-22T18:16:15.116Z,91.46
2023-01-22T18:18:43.341Z,91.65
2023-01-22T18:21:14.505Z,90.98
2023-01-22T18:23:41.244Z,91.24
2023-01-22T18:26:08.481Z,91.18
2023-01-22T18:28:35.893Z,91.29
2023-01-22T18:31:14.452Z,91.33
2023-01-22T18:33:43.092Z,90.97
2023-01-22T18:36:13.987Z,90.88
2023-01-22T18:38:41.334Z,91.34
2023-01-22T18:41:14.459Z,91.48
2023-01-22T18:43:41.796Z,91.74
2023-01-22T18:46:11.753Z,91.43
2023-01-22T18:48:41.117Z,91.51
2023-01-22T18:51:10.263Z,91.25
2023-01-22T18:53:37.501Z,91.09
2023-01-22T18:56:06.013Z,91.33
2023-01-22T18:58:35.539Z,90.96
2023-01-22T19:01:11.901Z,91.23
2023-01-22T19:03:40.388Z,91.88
2023-01-22T19:06:14.035Z,91.63
2023-01-22T19:08:54.567Z,92.04
2023-01-22T19:11:21.707Z,92.07
2023-01-22T19:13:49.355Z,92.11
2023-01-22T19:16:17.506Z,92.10
2023-01-22T19:18:48.863Z,91.19
2023-01-22T19:21:20.447Z,91.32
2023-01-22T19:23:52.007Z,92.05
2023-01-22T19:26:33.037Z,92.33
2023-01-22T19:29:02.161Z,92.35
2023-01-22T19:31:32.320Z,92.66
2023-01-22T19:34:00.356Z,92.93
2023-01-22T19:36:29.039Z,92.87
2023-01-22T19:38:57.721Z,92.99
2023-01-22T19:41:26.489Z,92.97
2023-01-22T19:43:55.069Z,93.24
2023-01-22T19:46:21.939Z,92.79
2023-01-22T19:48:48.939Z,92.64
2023-01-22T19:51:17.341Z,92.23
2023-01-22T19:53:44.014Z,92.69
2023-01-22T19:56:22.607Z,93.22
2023-01-22T19:58:50.217Z,92.61
2023-01-22T20:01:17.532Z,92.40
2023-01-22T20:03:44.554Z,92.55
2023-01-22T20:06:13.111Z,92.36
2023-01-22T20:08:40.286Z,92.06
2023-01-22T20:11:09.012Z,91.78
2023-01-22T20:13:37.169Z,91.47
2023-01-22T20:16:05.104Z,92.18
2023-01-22T20:18:31.949Z,93.03
2023-01-22T20:21:00.679Z,93.45
2023-01-22T20:23:28.913Z,93.63
2023-01-22T20:25:56.774Z,93.64
2023-01-22T20:28:23.479Z,93.36
2023-01-22T20:31:01.812Z,92.66
2023-01-22T20:33:28.734Z,92.98
2023-01-22T20:36:00.202Z,93.26
2023-01-22T20:38:27.862Z,93.42
2023-01-22T20:40:54.885Z,93.58
2023-01-22T20:43:21.537Z,93.64
2023-01-22T20:45:59.430Z,93.92
2023-01-22T20:48:26.279Z,93.60
2023-01-22T20:50:52.881Z,93.55
2023-01-22T20:53:19.872Z,93.36
2023-01-22T20:55:46.720Z,93.45
2023-01-22T20:58:13.286Z,93.67
2023-01-22T21:00:39.957Z,93.81
2023-01-22T21:03:06.548Z,93.98
2023-01-22T21:05:33.069Z,94.08
2023-01-22T21:08:01.804Z,94.04
2023-01-22T21:10:28.301Z,94.04
2023-01-22T21:12:54.864Z,93.74
2023-01-22T21:15:21.429Z,93.69
2023-01-22T21:17:47.956Z,93.91
2023-01-22T21:20:14.556Z,93.93
2023-01-22T21:22:42.423Z,93.91
2023-01-22T21:25:09.222Z,93.82
2023-01-22T21:27:35.800Z,94.03
2023-01-22T21:30:02.835Z,94.09
2023-01-22T21:32:30.604Z,94.02
2023-01-22T21:34:57.301Z,93.92
2023-01-22T21:37:23.920Z,93.93
2023-01-22T21:39:50.429Z,93.91
2023-01-22T21:42:36.059Z,93.76
2023-01-22T21:45:21.576Z,93.74
2023-01-22T21:47:48.126Z,93.52
2023-01-22T21:50:14.802Z,93.52
2023-01-22T21:52:42.981Z,93.67
2023-01-22T21:55:11.356Z,93.65
2023-01-22T21:57:38.575Z,93.17
2023-01-22T22:00:05.784Z,92.74
2023-01-22T22:02:32.454Z,92.96
2023-01-22T22:04:59.876Z,93.31
2023-01-22T22:07:26.447Z,93.47
2023-01-22T22:09:53.031Z,93.80
2023-01-22T22:12:19.536Z,93.93
2023-01-22T22:14:46.054Z,94.19
2023-01-22T22:17:12.598Z,94.23
2023-01-22T22:19:39.251Z,94.29
2023-01-22T22:22:05.758Z,94.34
2023-01-22T22:24:32.336Z,94.53
2023-01-22T22:26:58.839Z,94.56
2023-01-22T22:29:25.361Z,94.77
2023-01-22T22:31:51.962Z,94.79
2023-01-22T22:34:18.520Z,94.72
2023-01-22T22:36:45.004Z,94.85
2023-01-22T22:39:11.613Z,94.91
2023-01-22T22:41:39.259Z,94.96
2023-01-22T22:44:06.628Z,94.93
2023-01-22T22:46:35.769Z,94.70
2023-01-22T22:49:03.823Z,94.80
2023-01-22T22:51:35.870Z,94.94
2023-01-22T22:54:05.418Z,94.88
2023-01-22T22:56:32.334Z,94.99
